AAL2494 KMIA-MMUN
Flight info
| Callsign | AAL2494 |
|---|---|
| Flight time | 1h 27m |
| Altitude | 40000 |
| Route | GLADZ4 LULLS Y196 CANOA UB879 NOSAT NOSAT1B |
| Aircraft | B772/H-SDE1E3FGHIJ1J3J4J5M1P2RWXYZ/AA1DCD |
Departure
| Time | 2026-05-05 19:02 |
|---|---|
| Airport | Miami International Airport (KMIA) |
Arrival
| Time | 2026-05-05 20:29 |
|---|---|
| Airport | Cancún International Airport (MMUN) |
| Time | Latitude | Longitude | Altitude | Speed | Heading |
|---|---|---|---|---|---|
| 2026-05-05 18:26 | 25.79794 | -80.27836 | 20 ft | 0 kts | 177° |
| 2026-05-05 18:48 | 25.79800 | -80.27836 | 20 ft | 2 kts | 177° |
| 2026-05-05 18:49 | 25.79814 | -80.27837 | 20 ft | 2 kts | 177° |
| 2026-05-05 18:49 | 25.79829 | -80.27838 | 20 ft | 2 kts | 177° |
| 2026-05-05 18:49 | 25.79844 | -80.27838 | 20 ft | 2 kts | 191° |
| 2026-05-05 18:49 | 25.79859 | -80.27832 | 20 ft | 2 kts | 210° |
| 2026-05-05 18:50 | 25.79871 | -80.27823 | 20 ft | 2 kts | 226° |
| 2026-05-05 18:50 | 25.79880 | -80.27810 | 20 ft | 2 kts | 243° |
| 2026-05-05 18:50 | 25.79885 | -80.27795 | 20 ft | 2 kts | 259° |
| 2026-05-05 18:50 | 25.79886 | -80.27785 | 20 ft | 1 kts | 269° |
| 2026-05-05 18:51 | 25.79886 | -80.27782 | 20 ft | 0 kts | 268° |
| 2026-05-05 18:56 | 25.79886 | -80.27787 | 20 ft | 1 kts | 268° |
| 2026-05-05 18:56 | 25.79885 | -80.27816 | 20 ft | 5 kts | 267° |
| 2026-05-05 18:56 | 25.79891 | -80.27869 | 20 ft | 7 kts | 303° |
| 2026-05-05 18:56 | 25.79947 | -80.27890 | 20 ft | 10 kts | 358° |
| 2026-05-05 18:57 | 25.80022 | -80.27896 | 20 ft | 10 kts | 344° |
| 2026-05-05 18:57 | 25.80050 | -80.27960 | 20 ft | 11 kts | 269° |
| 2026-05-05 18:57 | 25.80047 | -80.28056 | 20 ft | 13 kts | 268° |
| 2026-05-05 18:57 | 25.80042 | -80.28168 | 20 ft | 15 kts | 267° |
| 2026-05-05 18:58 | 25.80036 | -80.28292 | 20 ft | 17 kts | 267° |
| 2026-05-05 18:58 | 25.80030 | -80.28429 | 20 ft | 18 kts | 268° |
| 2026-05-05 18:58 | 25.80024 | -80.28576 | 20 ft | 19 kts | 267° |
| 2026-05-05 18:58 | 25.80018 | -80.28731 | 20 ft | 20 kts | 267° |
| 2026-05-05 18:59 | 25.80011 | -80.28894 | 20 ft | 21 kts | 268° |
| 2026-05-05 18:59 | 25.80004 | -80.29065 | 20 ft | 22 kts | 268° |
| 2026-05-05 18:59 | 25.79997 | -80.29243 | 20 ft | 23 kts | 267° |
| 2026-05-05 18:59 | 25.79989 | -80.29428 | 20 ft | 24 kts | 267° |
| 2026-05-05 19:00 | 25.79982 | -80.29620 | 20 ft | 25 kts | 268° |
| 2026-05-05 19:00 | 25.79976 | -80.29769 | 20 ft | 16 kts | 268° |
| 2026-05-05 19:00 | 25.79971 | -80.29888 | 20 ft | 12 kts | 268° |
| 2026-05-05 19:00 | 25.79969 | -80.29963 | 20 ft | 10 kts | 268° |
| 2026-05-05 19:01 | 25.79972 | -80.30053 | 20 ft | 12 kts | 285° |
| 2026-05-05 19:01 | 25.80033 | -80.30113 | 20 ft | 10 kts | 352° |
| 2026-05-05 19:01 | 25.80069 | -80.30091 | 20 ft | 6 kts | 70° |
| 2026-05-05 19:01 | 25.80071 | -80.30076 | 20 ft | 1 kts | 84° |
| 2026-05-05 19:02 | 25.80075 | -80.29988 | 20 ft | 38 kts | 87° |
| 2026-05-05 19:02 | 25.80101 | -80.29396 | 20 ft | 111 kts | 87° |
| 2026-05-05 19:02 | 25.80140 | -80.28322 | 35 ft | 163 kts | 88° |
| 2026-05-05 19:02 | 25.80231 | -80.27078 | 641 ft | 159 kts | 83° |
| 2026-05-05 19:03 | 25.80310 | -80.25843 | 1284 ft | 161 kts | 87° |
| 2026-05-05 19:03 | 25.80356 | -80.24574 | 1529 ft | 173 kts | 86° |
| 2026-05-05 19:03 | 25.80405 | -80.23172 | 1684 ft | 191 kts | 86° |
| 2026-05-05 19:03 | 25.80459 | -80.21631 | 1849 ft | 210 kts | 86° |
| 2026-05-05 19:04 | 25.80521 | -80.19942 | 2168 ft | 228 kts | 84° |
| 2026-05-05 19:04 | 25.80939 | -80.18198 | 2520 ft | 244 kts | 61° |
| 2026-05-05 19:04 | 25.82053 | -80.16722 | 2922 ft | 258 kts | 35° |
| 2026-05-05 19:04 | 25.83711 | -80.15937 | 3493 ft | 265 kts | 7° |
| 2026-05-05 19:05 | 25.85546 | -80.15814 | 4231 ft | 267 kts | 359° |
| 2026-05-05 19:05 | 25.87402 | -80.15783 | 4997 ft | 269 kts | 359° |
| 2026-05-05 19:05 | 25.89275 | -80.15817 | 5676 ft | 271 kts | 349° |
| 2026-05-05 19:05 | 25.91109 | -80.16316 | 6335 ft | 273 kts | 341° |
| 2026-05-05 19:06 | 25.92921 | -80.16945 | 7028 ft | 274 kts | 340° |
| 2026-05-05 19:06 | 25.94748 | -80.17589 | 7689 ft | 276 kts | 340° |
| 2026-05-05 19:06 | 25.96570 | -80.18293 | 8280 ft | 278 kts | 331° |
| 2026-05-05 19:06 | 25.98082 | -80.19612 | 8824 ft | 278 kts | 307° |
| 2026-05-05 19:07 | 25.98958 | -80.21503 | 9429 ft | 278 kts | 285° |
| 2026-05-05 19:07 | 25.99338 | -80.23598 | 10117 ft | 278 kts | 279° |
| 2026-05-05 19:07 | 25.99615 | -80.25759 | 10475 ft | 291 kts | 278° |
| 2026-05-05 19:07 | 25.99782 | -80.28069 | 10724 ft | 309 kts | 271° |
| 2026-05-05 19:08 | 25.99784 | -80.30526 | 11034 ft | 326 kts | 270° |
| 2026-05-05 19:08 | 25.99774 | -80.33104 | 11400 ft | 342 kts | 270° |
| 2026-05-05 19:08 | 25.99768 | -80.35801 | 11808 ft | 356 kts | 271° |
| 2026-05-05 19:08 | 25.99726 | -80.38590 | 12360 ft | 367 kts | 267° |
| 2026-05-05 19:09 | 25.99294 | -80.41405 | 13101 ft | 375 kts | 257° |
| 2026-05-05 19:09 | 25.98383 | -80.44118 | 13986 ft | 380 kts | 247° |
| 2026-05-05 19:09 | 25.97014 | -80.46635 | 14880 ft | 387 kts | 238° |
| 2026-05-05 19:09 | 25.95369 | -80.49033 | 15655 ft | 396 kts | 236° |
| 2026-05-05 19:10 | 25.93662 | -80.51460 | 16499 ft | 402 kts | 236° |
| 2026-05-05 19:10 | 25.91931 | -80.53916 | 17338 ft | 407 kts | 236° |
| 2026-05-05 19:10 | 25.90178 | -80.56399 | 18158 ft | 413 kts | 237° |
| 2026-05-05 19:10 | 25.88402 | -80.58911 | 19098 ft | 415 kts | 237° |
| 2026-05-05 19:11 | 25.86618 | -80.61433 | 20051 ft | 417 kts | 237° |
| 2026-05-05 19:11 | 25.84819 | -80.63975 | 20891 ft | 422 kts | 237° |
| 2026-05-05 19:11 | 25.82998 | -80.66547 | 21709 ft | 427 kts | 236° |
| 2026-05-05 19:11 | 25.81160 | -80.69141 | 22595 ft | 430 kts | 237° |
| 2026-05-05 19:12 | 25.79427 | -80.71822 | 23423 ft | 429 kts | 243° |
| 2026-05-05 19:12 | 25.78069 | -80.74772 | 24107 ft | 431 kts | 252° |
| 2026-05-05 19:12 | 25.77101 | -80.77917 | 24768 ft | 435 kts | 257° |
| 2026-05-05 19:12 | 25.76231 | -80.81133 | 25515 ft | 439 kts | 257° |
| 2026-05-05 19:13 | 25.75355 | -80.84378 | 26262 ft | 443 kts | 258° |
| 2026-05-05 19:13 | 25.74468 | -80.87656 | 26976 ft | 447 kts | 258° |
| 2026-05-05 19:13 | 25.73567 | -80.90973 | 27619 ft | 452 kts | 258° |
| 2026-05-05 19:13 | 25.72658 | -80.94314 | 28206 ft | 457 kts | 258° |
| 2026-05-05 19:14 | 25.71735 | -80.97701 | 28822 ft | 462 kts | 258° |
| 2026-05-05 19:14 | 25.70803 | -81.01109 | 29517 ft | 464 kts | 258° |
| 2026-05-05 19:14 | 25.69868 | -81.04520 | 30373 ft | 463 kts | 258° |
| 2026-05-05 19:14 | 25.68941 | -81.07897 | 31341 ft | 458 kts | 259° |
| 2026-05-05 19:15 | 25.68021 | -81.11244 | 32313 ft | 453 kts | 260° |
| 2026-05-05 19:15 | 25.67110 | -81.14557 | 33132 ft | 451 kts | 260° |
| 2026-05-05 19:15 | 25.66197 | -81.17872 | 33968 ft | 451 kts | 260° |
| 2026-05-05 19:15 | 25.65027 | -81.21159 | 34846 ft | 457 kts | 252° |
| 2026-05-05 19:16 | 25.63415 | -81.24234 | 35785 ft | 462 kts | 244° |
| 2026-05-05 19:16 | 25.61399 | -81.27035 | 36554 ft | 470 kts | 236° |
| 2026-05-05 19:16 | 25.59024 | -81.29570 | 37221 ft | 475 kts | 231° |
| 2026-05-05 19:16 | 25.56571 | -81.32010 | 37828 ft | 475 kts | 231° |
| 2026-05-05 19:17 | 25.54112 | -81.34444 | 38356 ft | 475 kts | 231° |
| 2026-05-05 19:17 | 25.51648 | -81.36883 | 38852 ft | 475 kts | 231° |
| 2026-05-05 19:17 | 25.49195 | -81.39309 | 39487 ft | 473 kts | 231° |
| 2026-05-05 19:17 | 25.46753 | -81.41725 | 39996 ft | 472 kts | 231° |
| 2026-05-05 19:18 | 25.41842 | -81.46583 | 39989 ft | 473 kts | 231° |
| 2026-05-05 19:18 | 25.36957 | -81.51409 | 39991 ft | 472 kts | 231° |
| 2026-05-05 19:19 | 25.32065 | -81.56239 | 39993 ft | 472 kts | 231° |
| 2026-05-05 19:19 | 25.27162 | -81.61076 | 39994 ft | 474 kts | 231° |
| 2026-05-05 19:20 | 25.22227 | -81.65937 | 40009 ft | 474 kts | 230° |
| 2026-05-05 19:20 | 25.17086 | -81.70530 | 40003 ft | 484 kts | 220° |
| 2026-05-05 19:21 | 25.14073 | -81.72284 | 40015 ft | 497 kts | 211° |
| 2026-05-05 19:21 | 25.10804 | -81.73613 | 40018 ft | 502 kts | 206° |
| 2026-05-05 19:21 | 25.04154 | -81.76006 | 40016 ft | 501 kts | 205° |
| 2026-05-05 19:22 | 24.97481 | -81.78400 | 40019 ft | 504 kts | 205° |
| 2026-05-05 19:22 | 24.90791 | -81.80799 | 40027 ft | 505 kts | 205° |
| 2026-05-05 19:23 | 24.84092 | -81.83201 | 40006 ft | 505 kts | 205° |
| 2026-05-05 19:23 | 24.77417 | -81.85592 | 40010 ft | 503 kts | 205° |
| 2026-05-05 19:24 | 24.70743 | -81.87983 | 40019 ft | 504 kts | 205° |
| 2026-05-05 19:24 | 24.64072 | -81.90369 | 40020 ft | 504 kts | 205° |
| 2026-05-05 19:25 | 24.57404 | -81.92772 | 40016 ft | 502 kts | 208° |
| 2026-05-05 19:25 | 24.51357 | -81.96287 | 40014 ft | 485 kts | 224° |
| 2026-05-05 19:26 | 24.46559 | -82.01254 | 40013 ft | 466 kts | 240° |
| 2026-05-05 19:26 | 24.43208 | -82.07147 | 40010 ft | 451 kts | 252° |
| 2026-05-05 19:27 | 24.40513 | -82.13350 | 40006 ft | 450 kts | 253° |
| 2026-05-05 19:27 | 24.37819 | -82.19539 | 40006 ft | 453 kts | 253° |
| 2026-05-05 19:28 | 24.35107 | -82.25736 | 40011 ft | 449 kts | 252° |
| 2026-05-05 19:28 | 24.32398 | -82.31914 | 40003 ft | 454 kts | 252° |
| 2026-05-05 19:29 | 24.29659 | -82.38141 | 40005 ft | 453 kts | 252° |
| 2026-05-05 19:29 | 24.26933 | -82.44326 | 40002 ft | 451 kts | 252° |
| 2026-05-05 19:30 | 24.24216 | -82.50485 | 40007 ft | 451 kts | 252° |
| 2026-05-05 19:30 | 24.21486 | -82.56666 | 40006 ft | 452 kts | 252° |
| 2026-05-05 19:31 | 24.18758 | -82.62829 | 40003 ft | 451 kts | 252° |
| 2026-05-05 19:31 | 24.16018 | -82.69012 | 40016 ft | 452 kts | 252° |
| 2026-05-05 19:32 | 24.13285 | -82.75172 | 40009 ft | 451 kts | 252° |
| 2026-05-05 19:32 | 24.10549 | -82.81331 | 39997 ft | 451 kts | 252° |
| 2026-05-05 19:33 | 24.07803 | -82.87504 | 39994 ft | 451 kts | 252° |
| 2026-05-05 19:33 | 24.05063 | -82.93655 | 39993 ft | 453 kts | 252° |
| 2026-05-05 19:34 | 24.02306 | -82.99836 | 39995 ft | 452 kts | 252° |
| 2026-05-05 19:35 | 23.97459 | -83.08750 | 39994 ft | 464 kts | 241° |
| 2026-05-05 19:35 | 23.93607 | -83.14420 | 39993 ft | 464 kts | 241° |
| 2026-05-05 19:36 | 23.89782 | -83.20038 | 39994 ft | 463 kts | 241° |
| 2026-05-05 19:36 | 23.85920 | -83.25711 | 39979 ft | 464 kts | 241° |
| 2026-05-05 19:37 | 23.82096 | -83.31317 | 39979 ft | 459 kts | 241° |
| 2026-05-05 19:37 | 23.78270 | -83.36926 | 39977 ft | 464 kts | 241° |
| 2026-05-05 19:38 | 23.74422 | -83.42557 | 39977 ft | 462 kts | 241° |
| 2026-05-05 19:38 | 23.70585 | -83.48168 | 39977 ft | 463 kts | 241° |
| 2026-05-05 19:39 | 23.66747 | -83.53772 | 39979 ft | 461 kts | 240° |
| 2026-05-05 19:39 | 23.62905 | -83.59378 | 39979 ft | 464 kts | 240° |
| 2026-05-05 19:40 | 23.59047 | -83.64996 | 39979 ft | 464 kts | 240° |
| 2026-05-05 19:40 | 23.55193 | -83.70603 | 39988 ft | 463 kts | 240° |
| 2026-05-05 19:41 | 23.51337 | -83.76205 | 39989 ft | 462 kts | 240° |
| 2026-05-05 19:41 | 23.47501 | -83.81773 | 39991 ft | 461 kts | 240° |
| 2026-05-05 19:42 | 23.43644 | -83.87367 | 39987 ft | 462 kts | 240° |
| 2026-05-05 19:42 | 23.39794 | -83.92942 | 39988 ft | 461 kts | 240° |
| 2026-05-05 19:43 | 23.35936 | -83.98524 | 39988 ft | 462 kts | 240° |
| 2026-05-05 19:43 | 23.32074 | -84.04106 | 39985 ft | 463 kts | 240° |
| 2026-05-05 19:44 | 23.28203 | -84.09694 | 39987 ft | 464 kts | 239° |
| 2026-05-05 19:44 | 23.24337 | -84.15268 | 39982 ft | 462 kts | 239° |
| 2026-05-05 19:45 | 23.20453 | -84.20865 | 39984 ft | 465 kts | 239° |
| 2026-05-05 19:45 | 23.16570 | -84.26450 | 39984 ft | 463 kts | 240° |
| 2026-05-05 19:46 | 23.12689 | -84.32029 | 39989 ft | 463 kts | 239° |
| 2026-05-05 19:46 | 23.08801 | -84.37612 | 39985 ft | 464 kts | 239° |
| 2026-05-05 19:47 | 23.04925 | -84.43169 | 39987 ft | 463 kts | 239° |
| 2026-05-05 19:47 | 23.01022 | -84.48763 | 39987 ft | 466 kts | 239° |
| 2026-05-05 19:48 | 22.97122 | -84.54344 | 39985 ft | 464 kts | 239° |
| 2026-05-05 19:48 | 22.93217 | -84.59928 | 39987 ft | 466 kts | 239° |
| 2026-05-05 19:49 | 22.89297 | -84.65526 | 39977 ft | 467 kts | 239° |
| 2026-05-05 19:49 | 22.85366 | -84.71133 | 39983 ft | 466 kts | 239° |
| 2026-05-05 19:50 | 22.81435 | -84.76736 | 39976 ft | 468 kts | 239° |
| 2026-05-05 19:50 | 22.77512 | -84.82319 | 39969 ft | 465 kts | 239° |
| 2026-05-05 19:51 | 22.73585 | -84.87906 | 39963 ft | 468 kts | 238° |
| 2026-05-05 19:51 | 22.69651 | -84.93493 | 39963 ft | 467 kts | 238° |
| 2026-05-05 19:52 | 22.65710 | -84.99085 | 39963 ft | 469 kts | 238° |
| 2026-05-05 19:52 | 22.61765 | -85.04676 | 39964 ft | 467 kts | 238° |
| 2026-05-05 19:53 | 22.57835 | -85.10289 | 39963 ft | 468 kts | 239° |
| 2026-05-05 19:53 | 22.55895 | -85.13080 | 39574 ft | 463 kts | 239° |
| 2026-05-05 19:53 | 22.53960 | -85.15863 | 38489 ft | 467 kts | 238° |
| 2026-05-05 19:53 | 22.52013 | -85.18661 | 37772 ft | 466 kts | 238° |
| 2026-05-05 19:54 | 22.50074 | -85.21445 | 37066 ft | 465 kts | 238° |
| 2026-05-05 19:54 | 22.48134 | -85.24227 | 36317 ft | 464 kts | 238° |
| 2026-05-05 19:54 | 22.46194 | -85.27009 | 35551 ft | 464 kts | 238° |
| 2026-05-05 19:54 | 22.44255 | -85.29788 | 34782 ft | 464 kts | 238° |
| 2026-05-05 19:55 | 22.42314 | -85.32568 | 33961 ft | 465 kts | 238° |
| 2026-05-05 19:55 | 22.40366 | -85.35358 | 33153 ft | 473 kts | 238° |
| 2026-05-05 19:55 | 22.38351 | -85.38247 | 32310 ft | 491 kts | 237° |
| 2026-05-05 19:55 | 22.36287 | -85.41199 | 31390 ft | 495 kts | 237° |
| 2026-05-05 19:56 | 22.34209 | -85.44166 | 30523 ft | 495 kts | 237° |
| 2026-05-05 19:56 | 22.32152 | -85.47100 | 29992 ft | 487 kts | 237° |
| 2026-05-05 19:56 | 22.30130 | -85.49982 | 29445 ft | 480 kts | 237° |
| 2026-05-05 19:56 | 22.28132 | -85.52830 | 28852 ft | 474 kts | 237° |
| 2026-05-05 19:57 | 22.26161 | -85.55639 | 28257 ft | 468 kts | 237° |
| 2026-05-05 19:57 | 22.24211 | -85.58416 | 27660 ft | 463 kts | 237° |
| 2026-05-05 19:57 | 22.22283 | -85.61169 | 27072 ft | 458 kts | 237° |
| 2026-05-05 19:57 | 22.20377 | -85.63893 | 26495 ft | 453 kts | 237° |
| 2026-05-05 19:58 | 22.18492 | -85.66586 | 25932 ft | 448 kts | 236° |
| 2026-05-05 19:58 | 22.16624 | -85.69254 | 25375 ft | 444 kts | 236° |
| 2026-05-05 19:58 | 22.14777 | -85.71891 | 24823 ft | 440 kts | 236° |
| 2026-05-05 19:58 | 22.12945 | -85.74504 | 24269 ft | 436 kts | 236° |
| 2026-05-05 19:59 | 22.11125 | -85.77100 | 23721 ft | 432 kts | 236° |
| 2026-05-05 19:59 | 22.09322 | -85.79670 | 23176 ft | 429 kts | 236° |
| 2026-05-05 19:59 | 22.07532 | -85.82221 | 22624 ft | 426 kts | 236° |
| 2026-05-05 19:59 | 22.05750 | -85.84758 | 22077 ft | 423 kts | 236° |
| 2026-05-05 20:00 | 22.03984 | -85.87271 | 21532 ft | 420 kts | 236° |
| 2026-05-05 20:00 | 22.02226 | -85.89772 | 20979 ft | 418 kts | 236° |
| 2026-05-05 20:00 | 22.00479 | -85.92256 | 20424 ft | 416 kts | 236° |
| 2026-05-05 20:00 | 21.98742 | -85.94724 | 20033 ft | 409 kts | 236° |
| 2026-05-05 20:01 | 21.97043 | -85.97113 | 19966 ft | 395 kts | 234° |
| 2026-05-05 20:01 | 21.95149 | -85.99201 | 19947 ft | 389 kts | 226° |
| 2026-05-05 20:01 | 21.93113 | -86.01152 | 19799 ft | 394 kts | 225° |
| 2026-05-05 20:01 | 21.91229 | -86.03258 | 19631 ft | 388 kts | 239° |
| 2026-05-05 20:02 | 21.90059 | -86.05821 | 19486 ft | 379 kts | 257° |
| 2026-05-05 20:02 | 21.89746 | -86.08593 | 19357 ft | 371 kts | 277° |
| 2026-05-05 20:02 | 21.90338 | -86.11256 | 19263 ft | 365 kts | 297° |
| 2026-05-05 20:02 | 21.91746 | -86.13482 | 19202 ft | 360 kts | 317° |
| 2026-05-05 20:03 | 21.93784 | -86.15004 | 19176 ft | 357 kts | 336° |
| 2026-05-05 20:03 | 21.96186 | -86.15636 | 19155 ft | 356 kts | 356° |
| 2026-05-05 20:03 | 21.98644 | -86.15297 | 19136 ft | 360 kts | 16° |
| 2026-05-05 20:03 | 22.00866 | -86.14018 | 19118 ft | 368 kts | 36° |
| 2026-05-05 20:04 | 22.02618 | -86.11962 | 19109 ft | 386 kts | 51° |
| 2026-05-05 20:04 | 22.04016 | -86.09390 | 19101 ft | 407 kts | 62° |
| 2026-05-05 20:04 | 22.04930 | -86.06479 | 19088 ft | 415 kts | 74° |
| 2026-05-05 20:04 | 22.05264 | -86.03379 | 19072 ft | 420 kts | 86° |
| 2026-05-05 20:05 | 22.04976 | -86.00243 | 19056 ft | 424 kts | 99° |
| 2026-05-05 20:05 | 22.04061 | -85.97214 | 19040 ft | 429 kts | 112° |
| 2026-05-05 20:05 | 22.02540 | -85.94439 | 19026 ft | 433 kts | 125° |
| 2026-05-05 20:05 | 22.00478 | -85.92074 | 19012 ft | 436 kts | 138° |
| 2026-05-05 20:06 | 21.97970 | -85.90248 | 18997 ft | 436 kts | 152° |
| 2026-05-05 20:06 | 21.95137 | -85.89061 | 18983 ft | 437 kts | 165° |
| 2026-05-05 20:06 | 21.92133 | -85.88581 | 18972 ft | 436 kts | 179° |
| 2026-05-05 20:06 | 21.89112 | -85.88830 | 18960 ft | 434 kts | 193° |
| 2026-05-05 20:07 | 21.86242 | -85.89782 | 18952 ft | 431 kts | 206° |
| 2026-05-05 20:07 | 21.83654 | -85.91374 | 18943 ft | 427 kts | 219° |
| 2026-05-05 20:07 | 21.81472 | -85.93511 | 18938 ft | 422 kts | 232° |
| 2026-05-05 20:07 | 21.79790 | -85.96064 | 18931 ft | 416 kts | 244° |
| 2026-05-05 20:08 | 21.78475 | -85.98820 | 18932 ft | 414 kts | 247° |
| 2026-05-05 20:08 | 21.77205 | -86.01594 | 18926 ft | 414 kts | 247° |
| 2026-05-05 20:08 | 21.75934 | -86.04373 | 18923 ft | 414 kts | 247° |
| 2026-05-05 20:08 | 21.74666 | -86.07145 | 18918 ft | 414 kts | 247° |
| 2026-05-05 20:09 | 21.73396 | -86.09920 | 18909 ft | 414 kts | 247° |
| 2026-05-05 20:09 | 21.72117 | -86.12713 | 18687 ft | 417 kts | 247° |
| 2026-05-05 20:09 | 21.70857 | -86.15460 | 18560 ft | 403 kts | 247° |
| 2026-05-05 20:09 | 21.69641 | -86.18105 | 18480 ft | 388 kts | 247° |
| 2026-05-05 20:10 | 21.68467 | -86.20662 | 18346 ft | 376 kts | 248° |
| 2026-05-05 20:10 | 21.67329 | -86.23142 | 18194 ft | 365 kts | 248° |
| 2026-05-05 20:10 | 21.66215 | -86.25546 | 18037 ft | 356 kts | 245° |
| 2026-05-05 20:10 | 21.64762 | -86.27672 | 17870 ft | 352 kts | 229° |
| 2026-05-05 20:11 | 21.62983 | -86.29473 | 17546 ft | 351 kts | 225° |
| 2026-05-05 20:11 | 21.61157 | -86.31209 | 17179 ft | 350 kts | 225° |
| 2026-05-05 20:11 | 21.59329 | -86.32929 | 16833 ft | 349 kts | 224° |
| 2026-05-05 20:11 | 21.57507 | -86.34639 | 16499 ft | 347 kts | 224° |
| 2026-05-05 20:12 | 21.55697 | -86.36336 | 16157 ft | 345 kts | 224° |
| 2026-05-05 20:12 | 21.53896 | -86.38024 | 15827 ft | 342 kts | 224° |
| 2026-05-05 20:12 | 21.52025 | -86.39599 | 15505 ft | 341 kts | 217° |
| 2026-05-05 20:12 | 21.50066 | -86.41019 | 15177 ft | 339 kts | 216° |
| 2026-05-05 20:13 | 21.48102 | -86.42413 | 14856 ft | 337 kts | 216° |
| 2026-05-05 20:13 | 21.46150 | -86.43802 | 14536 ft | 335 kts | 216° |
| 2026-05-05 20:13 | 21.44212 | -86.45186 | 14206 ft | 333 kts | 216° |
| 2026-05-05 20:13 | 21.42289 | -86.46560 | 13874 ft | 331 kts | 215° |
| 2026-05-05 20:14 | 21.40380 | -86.47924 | 13570 ft | 328 kts | 215° |
| 2026-05-05 20:14 | 21.38482 | -86.49281 | 13244 ft | 326 kts | 215° |
| 2026-05-05 20:14 | 21.36601 | -86.50625 | 12935 ft | 324 kts | 215° |
| 2026-05-05 20:14 | 21.34730 | -86.51962 | 12598 ft | 321 kts | 215° |
| 2026-05-05 20:15 | 21.32890 | -86.53278 | 12297 ft | 315 kts | 215° |
| 2026-05-05 20:15 | 21.31083 | -86.54570 | 11996 ft | 308 kts | 215° |
| 2026-05-05 20:15 | 21.29319 | -86.55831 | 11705 ft | 302 kts | 215° |
| 2026-05-05 20:15 | 21.27583 | -86.57071 | 11408 ft | 297 kts | 215° |
| 2026-05-05 20:16 | 21.25879 | -86.58289 | 11104 ft | 292 kts | 215° |
| 2026-05-05 20:16 | 21.24203 | -86.59486 | 10831 ft | 286 kts | 215° |
| 2026-05-05 20:16 | 21.22560 | -86.60659 | 10560 ft | 281 kts | 215° |
| 2026-05-05 20:16 | 21.20948 | -86.61810 | 10295 ft | 276 kts | 215° |
| 2026-05-05 20:17 | 21.19363 | -86.62941 | 10024 ft | 271 kts | 215° |
| 2026-05-05 20:17 | 21.17809 | -86.64050 | 9775 ft | 265 kts | 214° |
| 2026-05-05 20:17 | 21.16278 | -86.65142 | 9547 ft | 264 kts | 214° |
| 2026-05-05 20:17 | 21.14747 | -86.66234 | 9292 ft | 263 kts | 214° |
| 2026-05-05 20:18 | 21.13220 | -86.67322 | 9035 ft | 263 kts | 214° |
| 2026-05-05 20:18 | 21.11699 | -86.68406 | 8779 ft | 262 kts | 214° |
| 2026-05-05 20:18 | 21.10179 | -86.69489 | 8518 ft | 261 kts | 214° |
| 2026-05-05 20:18 | 21.08710 | -86.70623 | 8258 ft | 259 kts | 226° |
| 2026-05-05 20:19 | 21.07784 | -86.72245 | 8002 ft | 256 kts | 255° |
| 2026-05-05 20:19 | 21.07709 | -86.74099 | 7828 ft | 251 kts | 282° |
| 2026-05-05 20:19 | 21.08359 | -86.75845 | 7469 ft | 256 kts | 299° |
| 2026-05-05 20:19 | 21.09289 | -86.77485 | 7128 ft | 259 kts | 303° |
| 2026-05-05 20:20 | 21.10287 | -86.79102 | 6808 ft | 261 kts | 304° |
| 2026-05-05 20:20 | 21.11300 | -86.80719 | 6487 ft | 262 kts | 304° |
| 2026-05-05 20:20 | 21.12310 | -86.82331 | 6183 ft | 260 kts | 304° |
| 2026-05-05 20:20 | 21.13313 | -86.83934 | 5888 ft | 258 kts | 304° |
| 2026-05-05 20:21 | 21.14322 | -86.85546 | 5594 ft | 267 kts | 304° |
| 2026-05-05 20:21 | 21.15374 | -86.87228 | 5263 ft | 274 kts | 304° |
| 2026-05-05 20:21 | 21.16436 | -86.88928 | 4939 ft | 275 kts | 304° |
| 2026-05-05 20:21 | 21.17495 | -86.90623 | 4621 ft | 271 kts | 303° |
| 2026-05-05 20:22 | 21.18525 | -86.92274 | 4356 ft | 263 kts | 303° |
| 2026-05-05 20:22 | 21.19528 | -86.93882 | 4100 ft | 256 kts | 303° |
| 2026-05-05 20:22 | 21.20507 | -86.95450 | 3831 ft | 251 kts | 303° |
| 2026-05-05 20:22 | 21.21466 | -86.96988 | 3568 ft | 246 kts | 303° |
| 2026-05-05 20:23 | 21.22400 | -86.98501 | 3310 ft | 241 kts | 299° |
| 2026-05-05 20:23 | 21.22878 | -87.00166 | 3051 ft | 233 kts | 268° |
| 2026-05-05 20:23 | 21.22521 | -87.01784 | 2941 ft | 219 kts | 237° |
| 2026-05-05 20:23 | 21.21559 | -87.02987 | 2934 ft | 212 kts | 219° |
| 2026-05-05 20:24 | 21.20388 | -87.03977 | 2935 ft | 214 kts | 213° |
| 2026-05-05 20:24 | 21.19160 | -87.04873 | 2936 ft | 213 kts | 210° |
| 2026-05-05 20:24 | 21.17793 | -87.05387 | 2928 ft | 208 kts | 180° |
| 2026-05-05 20:24 | 21.16374 | -87.05096 | 2924 ft | 208 kts | 154° |
| 2026-05-05 20:25 | 21.15327 | -87.04077 | 2926 ft | 205 kts | 121° |
| 2026-05-05 20:25 | 21.14661 | -87.02734 | 2931 ft | 201 kts | 120° |
| 2026-05-05 20:25 | 21.13945 | -87.01499 | 2931 ft | 190 kts | 124° |
| 2026-05-05 20:25 | 21.13198 | -87.00344 | 2729 ft | 184 kts | 125° |
| 2026-05-05 20:26 | 21.12506 | -86.99280 | 2436 ft | 169 kts | 124° |
| 2026-05-05 20:26 | 21.11853 | -86.98248 | 2191 ft | 167 kts | 124° |
| 2026-05-05 20:26 | 21.11205 | -86.97216 | 1967 ft | 166 kts | 124° |
| 2026-05-05 20:26 | 21.10561 | -86.96196 | 1743 ft | 164 kts | 124° |
| 2026-05-05 20:27 | 21.09944 | -86.95215 | 1526 ft | 152 kts | 124° |
| 2026-05-05 20:27 | 21.09375 | -86.94315 | 1352 ft | 136 kts | 124° |
| 2026-05-05 20:27 | 21.08872 | -86.93518 | 1346 ft | 130 kts | 124° |
| 2026-05-05 20:27 | 21.08349 | -86.92687 | 1243 ft | 139 kts | 124° |
| 2026-05-05 20:28 | 21.07810 | -86.91840 | 959 ft | 135 kts | 126° |
| 2026-05-05 20:28 | 21.07292 | -86.91017 | 700 ft | 132 kts | 124° |
| 2026-05-05 20:28 | 21.06789 | -86.90214 | 513 ft | 129 kts | 127° |
| 2026-05-05 20:28 | 21.06288 | -86.89405 | 354 ft | 131 kts | 126° |
| 2026-05-05 20:29 | 21.05767 | -86.88603 | 193 ft | 131 kts | 126° |
| 2026-05-05 20:29 | 21.05258 | -86.87792 | 59 ft | 128 kts | 126° |
| 2026-05-05 20:29 | 21.04846 | -86.87137 | 48 ft | 80 kts | 124° |
| 2026-05-05 20:29 | 21.04629 | -86.86791 | 48 ft | 43 kts | 123° |
| 2026-05-05 20:30 | 21.04477 | -86.86549 | 48 ft | 28 kts | 124° |
| 2026-05-05 20:30 | 21.04347 | -86.86417 | 48 ft | 25 kts | 150° |
| 2026-05-05 20:30 | 21.04232 | -86.86356 | 49 ft | 11 kts | 158° |
| 2026-05-05 20:30 | 21.04184 | -86.86376 | 49 ft | 8 kts | 261° |
| 2026-05-05 20:31 | 21.04207 | -86.86446 | 48 ft | 12 kts | 301° |
| 2026-05-05 20:31 | 21.04260 | -86.86533 | 47 ft | 15 kts | 303° |
| 2026-05-05 20:31 | 21.04326 | -86.86634 | 48 ft | 17 kts | 302° |
| 2026-05-05 20:31 | 21.04396 | -86.86750 | 48 ft | 19 kts | 303° |
| 2026-05-05 20:32 | 21.04476 | -86.86877 | 47 ft | 21 kts | 303° |
| 2026-05-05 20:32 | 21.04562 | -86.87014 | 47 ft | 22 kts | 304° |
| 2026-05-05 20:32 | 21.04653 | -86.87159 | 47 ft | 24 kts | 303° |
| 2026-05-05 20:32 | 21.04748 | -86.87312 | 48 ft | 25 kts | 304° |
| 2026-05-05 20:33 | 21.04847 | -86.87470 | 49 ft | 25 kts | 303° |
| 2026-05-05 20:33 | 21.04948 | -86.87629 | 51 ft | 25 kts | 303° |
| 2026-05-05 20:33 | 21.05048 | -86.87790 | 54 ft | 25 kts | 304° |
| 2026-05-05 20:33 | 21.05149 | -86.87950 | 57 ft | 26 kts | 303° |
| 2026-05-05 20:34 | 21.05213 | -86.88058 | 58 ft | 9 kts | 288° |
| 2026-05-05 20:34 | 21.05177 | -86.88122 | 58 ft | 12 kts | 216° |
| 2026-05-05 20:34 | 21.05110 | -86.88169 | 57 ft | 2 kts | 214° |
| 2026-05-05 20:36 | 21.05108 | -86.88170 | 57 ft | 1 kts | 214° |
| 2026-05-05 20:36 | 21.05084 | -86.88187 | 57 ft | 6 kts | 214° |
| 2026-05-05 20:36 | 21.05040 | -86.88219 | 57 ft | 7 kts | 213° |
| 2026-05-05 20:37 | 21.05001 | -86.88221 | 56 ft | 7 kts | 161° |
| 2026-05-05 20:37 | 21.04947 | -86.88200 | 55 ft | 4 kts | 159° |
| 2026-05-05 20:37 | 21.04925 | -86.88191 | 55 ft | 0 kts | 159° |
| 2026-05-05 20:37 | 21.04923 | -86.88190 | 55 ft | 0 kts | 159° |